<?xml version="1.0" encoding="UTF-8" standalone="no" ?>
<gpx xmlns="http://www.topografix.com/GPX/1/1" xmlns:xsi="http://www.w3.org/2001/XMLSchema-instance" xsi:schemaLocation="http://www.topografix.com/GPX/1/1 http://www.topografix.com/GPX/1/1/gpx.xsd" version="1.1" creator="VisuGPX - https://www.visugpx.com">
  <metadata>
    <name>Parcours VTT Aglo 2021</name>
  </metadata>
  <trk>
    <name><![CDATA[Vert Orgnac]]></name>
    <extensions>
      <line xmlns="http://www.topografix.com/GPX/gpx_style/0/2">
        <color>00fa00</color>
        <width>4</width>
      </line>
    </extensions>
    <trkseg>
      <trkpt lat="44.31835" lon="4.41195">
        <ele>303</ele>
        <time>2021-07-04T13:20:45Z</time>
      </trkpt>
      <trkpt lat="44.31835" lon="4.41195">
        <ele>303</ele>
        <time>2021-07-04T13:20:45Z</time>
      </trkpt>
      <trkpt lat="44.3184" lon="4.41262">
        <ele>303</ele>
        <time>2021-07-04T13:20:56Z</time>
      </trkpt>
      <trkpt lat="44.31834" lon="4.41362">
        <ele>305</ele>
        <time>2021-07-04T13:21:13Z</time>
      </trkpt>
      <trkpt lat="44.31768" lon="4.41615">
        <ele>299</ele>
        <time>2021-07-04T13:21:58Z</time>
      </trkpt>
      <trkpt lat="44.31734" lon="4.41714">
        <ele>294</ele>
        <time>2021-07-04T13:22:16Z</time>
      </trkpt>
      <trkpt lat="44.31603" lon="4.41855">
        <ele>300</ele>
        <time>2021-07-04T13:22:55Z</time>
      </trkpt>
      <trkpt lat="44.31549" lon="4.41946">
        <ele>301</ele>
        <time>2021-07-04T13:23:15Z</time>
      </trkpt>
      <trkpt lat="44.31438" lon="4.42038">
        <ele>292</ele>
        <time>2021-07-04T13:23:45Z</time>
      </trkpt>
      <trkpt lat="44.31344" lon="4.42114">
        <ele>288</ele>
        <time>2021-07-04T13:24:10Z</time>
      </trkpt>
      <trkpt lat="44.31317" lon="4.42184">
        <ele>289</ele>
        <time>2021-07-04T13:24:24Z</time>
      </trkpt>
      <trkpt lat="44.31238" lon="4.42249">
        <ele>293</ele>
        <time>2021-07-04T13:24:45Z</time>
      </trkpt>
      <trkpt lat="44.31282" lon="4.42263">
        <ele>296</ele>
        <time>2021-07-04T13:24:55Z</time>
      </trkpt>
      <trkpt lat="44.3134" lon="4.42316">
        <ele>298</ele>
        <time>2021-07-04T13:25:12Z</time>
      </trkpt>
      <trkpt lat="44.31388" lon="4.42457">
        <ele>302</ele>
        <time>2021-07-04T13:25:38Z</time>
      </trkpt>
      <trkpt lat="44.31447" lon="4.42525">
        <ele>306</ele>
        <time>2021-07-04T13:25:56Z</time>
      </trkpt>
      <trkpt lat="44.31483" lon="4.42531">
        <ele>307</ele>
        <time>2021-07-04T13:26:04Z</time>
      </trkpt>
      <trkpt lat="44.314" lon="4.42733">
        <ele>308</ele>
        <time>2021-07-04T13:26:43Z</time>
      </trkpt>
      <trkpt lat="44.31393" lon="4.42829">
        <ele>309</ele>
        <time>2021-07-04T13:26:59Z</time>
      </trkpt>
      <trkpt lat="44.31337" lon="4.43108">
        <ele>310</ele>
        <time>2021-07-04T13:27:48Z</time>
      </trkpt>
      <trkpt lat="44.31271" lon="4.43146">
        <ele>308</ele>
        <time>2021-07-04T13:28:04Z</time>
      </trkpt>
      <trkpt lat="44.31267" lon="4.43176">
        <ele>307</ele>
        <time>2021-07-04T13:28:09Z</time>
      </trkpt>
      <trkpt lat="44.31102" lon="4.43188">
        <ele>308</ele>
        <time>2021-07-04T13:28:48Z</time>
      </trkpt>
      <trkpt lat="44.31109" lon="4.43126">
        <ele>305</ele>
        <time>2021-07-04T13:28:58Z</time>
      </trkpt>
      <trkpt lat="44.3061" lon="4.43277">
        <ele>292</ele>
        <time>2021-07-04T13:30:58Z</time>
      </trkpt>
      <trkpt lat="44.30624" lon="4.43192">
        <ele>287</ele>
        <time>2021-07-04T13:31:12Z</time>
      </trkpt>
      <trkpt lat="44.30635" lon="4.43154">
        <ele>284</ele>
        <time>2021-07-04T13:31:19Z</time>
      </trkpt>
      <trkpt lat="44.30653" lon="4.43136">
        <ele>284</ele>
        <time>2021-07-04T13:31:24Z</time>
      </trkpt>
      <trkpt lat="44.30704" lon="4.43118">
        <ele>284</ele>
        <time>2021-07-04T13:31:36Z</time>
      </trkpt>
      <trkpt lat="44.30723" lon="4.43105">
        <ele>284</ele>
        <time>2021-07-04T13:31:41Z</time>
      </trkpt>
      <trkpt lat="44.30753" lon="4.43058">
        <ele>282</ele>
        <time>2021-07-04T13:31:52Z</time>
      </trkpt>
      <trkpt lat="44.30761" lon="4.43044">
        <ele>282</ele>
        <time>2021-07-04T13:31:55Z</time>
      </trkpt>
      <trkpt lat="44.30823" lon="4.42976">
        <ele>284</ele>
        <time>2021-07-04T13:32:13Z</time>
      </trkpt>
      <trkpt lat="44.30812" lon="4.42944">
        <ele>284</ele>
        <time>2021-07-04T13:32:19Z</time>
      </trkpt>
      <trkpt lat="44.30802" lon="4.42929">
        <ele>284</ele>
        <time>2021-07-04T13:32:23Z</time>
      </trkpt>
      <trkpt lat="44.30733" lon="4.42928">
        <ele>281</ele>
        <time>2021-07-04T13:32:39Z</time>
      </trkpt>
      <trkpt lat="44.30667" lon="4.42908">
        <ele>278</ele>
        <time>2021-07-04T13:32:55Z</time>
      </trkpt>
      <trkpt lat="44.30575" lon="4.42868">
        <ele>280</ele>
        <time>2021-07-04T13:33:17Z</time>
      </trkpt>
      <trkpt lat="44.30568" lon="4.42845">
        <ele>283</ele>
        <time>2021-07-04T13:33:21Z</time>
      </trkpt>
      <trkpt lat="44.30552" lon="4.42828">
        <ele>284</ele>
        <time>2021-07-04T13:33:26Z</time>
      </trkpt>
      <trkpt lat="44.30543" lon="4.42752">
        <ele>287</ele>
        <time>2021-07-04T13:33:39Z</time>
      </trkpt>
      <trkpt lat="44.30558" lon="4.42674">
        <ele>289</ele>
        <time>2021-07-04T13:33:52Z</time>
      </trkpt>
      <trkpt lat="44.3054" lon="4.42618">
        <ele>288</ele>
        <time>2021-07-04T13:34:03Z</time>
      </trkpt>
      <trkpt lat="44.30531" lon="4.42577">
        <ele>288</ele>
        <time>2021-07-04T13:34:10Z</time>
      </trkpt>
      <trkpt lat="44.30509" lon="4.42517">
        <ele>285</ele>
        <time>2021-07-04T13:34:21Z</time>
      </trkpt>
      <trkpt lat="44.30498" lon="4.42456">
        <ele>282</ele>
        <time>2021-07-04T13:34:32Z</time>
      </trkpt>
      <trkpt lat="44.30488" lon="4.42451">
        <ele>282</ele>
        <time>2021-07-04T13:34:34Z</time>
      </trkpt>
      <trkpt lat="44.30473" lon="4.42434">
        <ele>281</ele>
        <time>2021-07-04T13:34:39Z</time>
      </trkpt>
      <trkpt lat="44.30462" lon="4.42409">
        <ele>280</ele>
        <time>2021-07-04T13:34:43Z</time>
      </trkpt>
      <trkpt lat="44.30429" lon="4.42349">
        <ele>278</ele>
        <time>2021-07-04T13:34:56Z</time>
      </trkpt>
      <trkpt lat="44.30443" lon="4.42323">
        <ele>277</ele>
        <time>2021-07-04T13:35:02Z</time>
      </trkpt>
      <trkpt lat="44.30433" lon="4.42296">
        <ele>276</ele>
        <time>2021-07-04T13:35:07Z</time>
      </trkpt>
      <trkpt lat="44.30409" lon="4.4226">
        <ele>274</ele>
        <time>2021-07-04T13:35:15Z</time>
      </trkpt>
      <trkpt lat="44.30371" lon="4.42163">
        <ele>274</ele>
        <time>2021-07-04T13:35:33Z</time>
      </trkpt>
      <trkpt lat="44.30327" lon="4.42008">
        <ele>266</ele>
        <time>2021-07-04T13:36:01Z</time>
      </trkpt>
      <trkpt lat="44.30295" lon="4.41964">
        <ele>264</ele>
        <time>2021-07-04T13:36:12Z</time>
      </trkpt>
      <trkpt lat="44.303" lon="4.41888">
        <ele>262</ele>
        <time>2021-07-04T13:36:24Z</time>
      </trkpt>
      <trkpt lat="44.30283" lon="4.41837">
        <ele>262</ele>
        <time>2021-07-04T13:36:34Z</time>
      </trkpt>
      <trkpt lat="44.30201" lon="4.41631">
        <ele>266</ele>
        <time>2021-07-04T13:37:13Z</time>
      </trkpt>
      <trkpt lat="44.30175" lon="4.4151">
        <ele>266</ele>
        <time>2021-07-04T13:37:34Z</time>
      </trkpt>
      <trkpt lat="44.30313" lon="4.41466">
        <ele>269</ele>
        <time>2021-07-04T13:38:07Z</time>
      </trkpt>
      <trkpt lat="44.3035" lon="4.41508">
        <ele>272</ele>
        <time>2021-07-04T13:38:19Z</time>
      </trkpt>
      <trkpt lat="44.30405" lon="4.4154">
        <ele>275</ele>
        <time>2021-07-04T13:38:32Z</time>
      </trkpt>
      <trkpt lat="44.30475" lon="4.41597">
        <ele>279</ele>
        <time>2021-07-04T13:38:51Z</time>
      </trkpt>
      <trkpt lat="44.30506" lon="4.41589">
        <ele>279</ele>
        <time>2021-07-04T13:38:59Z</time>
      </trkpt>
      <trkpt lat="44.30583" lon="4.41543">
        <ele>277</ele>
        <time>2021-07-04T13:39:18Z</time>
      </trkpt>
      <trkpt lat="44.30601" lon="4.41539">
        <ele>277</ele>
        <time>2021-07-04T13:39:23Z</time>
      </trkpt>
      <trkpt lat="44.30629" lon="4.41558">
        <ele>278</ele>
        <time>2021-07-04T13:39:30Z</time>
      </trkpt>
      <trkpt lat="44.30663" lon="4.4155">
        <ele>279</ele>
        <time>2021-07-04T13:39:38Z</time>
      </trkpt>
      <trkpt lat="44.30722" lon="4.41496">
        <ele>276</ele>
        <time>2021-07-04T13:39:54Z</time>
      </trkpt>
      <trkpt lat="44.30764" lon="4.41501">
        <ele>275</ele>
        <time>2021-07-04T13:40:04Z</time>
      </trkpt>
      <trkpt lat="44.3079" lon="4.41492">
        <ele>272</ele>
        <time>2021-07-04T13:40:10Z</time>
      </trkpt>
      <trkpt lat="44.30818" lon="4.41442">
        <ele>266</ele>
        <time>2021-07-04T13:40:21Z</time>
      </trkpt>
      <trkpt lat="44.30868" lon="4.41447">
        <ele>265</ele>
        <time>2021-07-04T13:40:33Z</time>
      </trkpt>
      <trkpt lat="44.30883" lon="4.41429">
        <ele>265</ele>
        <time>2021-07-04T13:40:37Z</time>
      </trkpt>
      <trkpt lat="44.30948" lon="4.41293">
        <ele>270</ele>
        <time>2021-07-04T13:41:05Z</time>
      </trkpt>
      <trkpt lat="44.30984" lon="4.41249">
        <ele>273</ele>
        <time>2021-07-04T13:41:16Z</time>
      </trkpt>
      <trkpt lat="44.31066" lon="4.4118">
        <ele>277</ele>
        <time>2021-07-04T13:41:38Z</time>
      </trkpt>
      <trkpt lat="44.3119" lon="4.41183">
        <ele>282</ele>
        <time>2021-07-04T13:42:07Z</time>
      </trkpt>
      <trkpt lat="44.31233" lon="4.41145">
        <ele>284</ele>
        <time>2021-07-04T13:42:19Z</time>
      </trkpt>
      <trkpt lat="44.31256" lon="4.41121">
        <ele>285</ele>
        <time>2021-07-04T13:42:26Z</time>
      </trkpt>
      <trkpt lat="44.31283" lon="4.41073">
        <ele>285</ele>
        <time>2021-07-04T13:42:36Z</time>
      </trkpt>
      <trkpt lat="44.31292" lon="4.41044">
        <ele>285</ele>
        <time>2021-07-04T13:42:41Z</time>
      </trkpt>
      <trkpt lat="44.31305" lon="4.41009">
        <ele>283</ele>
        <time>2021-07-04T13:42:48Z</time>
      </trkpt>
      <trkpt lat="44.31313" lon="4.40988">
        <ele>282</ele>
        <time>2021-07-04T13:42:52Z</time>
      </trkpt>
      <trkpt lat="44.31326" lon="4.40989">
        <ele>282</ele>
        <time>2021-07-04T13:42:55Z</time>
      </trkpt>
      <trkpt lat="44.31332" lon="4.4101">
        <ele>282</ele>
        <time>2021-07-04T13:42:59Z</time>
      </trkpt>
      <trkpt lat="44.31352" lon="4.41053">
        <ele>284</ele>
        <time>2021-07-04T13:43:07Z</time>
      </trkpt>
      <trkpt lat="44.31375" lon="4.41072">
        <ele>286</ele>
        <time>2021-07-04T13:43:13Z</time>
      </trkpt>
      <trkpt lat="44.31407" lon="4.41085">
        <ele>287</ele>
        <time>2021-07-04T13:43:21Z</time>
      </trkpt>
      <trkpt lat="44.31454" lon="4.41084">
        <ele>287</ele>
        <time>2021-07-04T13:43:32Z</time>
      </trkpt>
      <trkpt lat="44.31602" lon="4.41079">
        <ele>293</ele>
        <time>2021-07-04T13:44:07Z</time>
      </trkpt>
      <trkpt lat="44.31652" lon="4.41086">
        <ele>294</ele>
        <time>2021-07-04T13:44:18Z</time>
      </trkpt>
      <trkpt lat="44.31691" lon="4.41101">
        <ele>296</ele>
        <time>2021-07-04T13:44:28Z</time>
      </trkpt>
      <trkpt lat="44.31743" lon="4.41143">
        <ele>298</ele>
        <time>2021-07-04T13:44:42Z</time>
      </trkpt>
      <trkpt lat="44.31748" lon="4.41127">
        <ele>298</ele>
        <time>2021-07-04T13:44:45Z</time>
      </trkpt>
      <trkpt lat="44.31762" lon="4.41141">
        <ele>299</ele>
        <time>2021-07-04T13:44:49Z</time>
      </trkpt>
      <trkpt lat="44.31779" lon="4.4115">
        <ele>301</ele>
        <time>2021-07-04T13:44:53Z</time>
      </trkpt>
      <trkpt lat="44.3183" lon="4.41147">
        <ele>304</ele>
        <time>2021-07-04T13:45:05Z</time>
      </trkpt>
      <trkpt lat="44.31834" lon="4.41195">
        <ele>303</ele>
        <time>2021-07-04T13:45:13Z</time>
      </trkpt>
    </trkseg>
  </trk>
</gpx>